createdAt,value
2023-05-19T00:00:09.932Z,6.79
2023-05-19T00:02:39.794Z,6.73
2023-05-19T00:05:10.504Z,6.74
2023-05-19T00:07:40.677Z,6.69
2023-05-19T00:10:10.058Z,6.69
2023-05-19T00:12:38.956Z,6.63
2023-05-19T00:15:08.656Z,6.55
2023-05-19T00:17:38.449Z,6.55
2023-05-19T00:20:08.478Z,6.53
2023-05-19T00:22:37.076Z,6.42
2023-05-19T00:25:07.576Z,6.38
2023-05-19T00:27:35.583Z,6.37
2023-05-19T00:30:03.553Z,6.35
2023-05-19T00:32:31.587Z,6.23
2023-05-19T00:34:59.593Z,6.10
2023-05-19T00:37:27.870Z,6.16
2023-05-19T00:39:55.934Z,6.02
2023-05-19T00:42:25.728Z,6.05
2023-05-19T00:44:54.311Z,6.04
2023-05-19T00:47:23.281Z,5.88
2023-05-19T00:49:51.287Z,5.93
2023-05-19T00:52:19.407Z,5.86
2023-05-19T00:54:47.803Z,5.82
2023-05-19T00:57:16.216Z,5.75
2023-05-19T00:59:45.686Z,5.69
2023-05-19T01:02:13.728Z,5.71
2023-05-19T01:04:43.946Z,5.69
2023-05-19T01:07:12.685Z,5.59
2023-05-19T01:09:41.657Z,5.52
2023-05-19T01:12:10.335Z,5.42
2023-05-19T01:14:38.462Z,5.42
2023-05-19T01:17:16.005Z,5.31
2023-05-19T01:19:57.510Z,5.18
2023-05-19T01:22:42.943Z,5.10
2023-05-19T01:25:42.616Z,4.99
2023-05-19T01:28:40.591Z,5.02
2023-05-19T01:31:12.075Z,4.96
2023-05-19T01:33:42.412Z,4.93
2023-05-19T01:36:13.619Z,4.95
2023-05-19T01:38:41.839Z,4.91
2023-05-19T01:41:10.911Z,4.87
2023-05-19T01:43:39.778Z,4.92
2023-05-19T01:46:08.290Z,4.90
2023-05-19T01:48:38.323Z,4.85
2023-05-19T01:51:06.878Z,4.92
2023-05-19T01:53:34.942Z,4.92
2023-05-19T01:56:03.405Z,4.96
2023-05-19T01:58:39.392Z,4.86
2023-05-19T02:01:16.956Z,4.85
2023-05-19T02:04:01.947Z,4.77
2023-05-19T02:06:41.651Z,4.81
2023-05-19T02:09:16.842Z,4.67
2023-05-19T02:11:53.296Z,4.61
2023-05-19T02:14:25.661Z,4.61
2023-05-19T02:16:55.000Z,4.64
2023-05-19T02:19:26.251Z,4.59
2023-05-19T02:21:54.396Z,4.48
2023-05-19T02:24:23.088Z,4.52
2023-05-19T02:26:52.014Z,4.52
2023-05-19T02:29:20.559Z,4.56
2023-05-19T02:31:49.206Z,4.57
2023-05-19T02:34:17.278Z,4.49
2023-05-19T02:36:49.896Z,4.45
2023-05-19T02:39:17.985Z,4.39
2023-05-19T02:41:45.945Z,4.41
2023-05-19T02:44:14.095Z,4.41
2023-05-19T02:46:42.196Z,4.36
2023-05-19T02:49:11.542Z,4.25
2023-05-19T02:51:39.541Z,4.25
2023-05-19T02:54:08.929Z,4.32
2023-05-19T02:56:36.887Z,4.29
2023-05-19T02:59:04.875Z,4.34
2023-05-19T03:01:33.905Z,4.45
2023-05-19T03:04:02.303Z,4.56
2023-05-19T03:06:32.508Z,4.64
2023-05-19T03:09:00.515Z,4.71
2023-05-19T03:11:31.015Z,4.63
2023-05-19T03:13:59.829Z,4.69
2023-05-19T03:16:28.283Z,4.78
2023-05-19T03:18:56.569Z,4.87
2023-05-19T03:21:24.831Z,4.91
2023-05-19T03:23:52.796Z,4.94
2023-05-19T03:26:20.825Z,5.00
2023-05-19T03:28:50.148Z,5.10
2023-05-19T03:31:18.182Z,5.15
2023-05-19T03:33:46.231Z,5.19
2023-05-19T03:36:14.212Z,5.25
2023-05-19T03:38:42.251Z,5.30
2023-05-19T03:41:10.267Z,5.32
2023-05-19T03:43:38.244Z,5.40
2023-05-19T03:46:07.794Z,5.45
2023-05-19T03:48:35.875Z,5.49
2023-05-19T03:51:04.471Z,5.51
2023-05-19T03:53:32.424Z,5.54
2023-05-19T03:56:00.721Z,5.52
2023-05-19T03:58:30.091Z,5.59
2023-05-19T04:00:58.081Z,5.62
2023-05-19T04:03:28.665Z,5.72
2023-05-19T04:05:56.801Z,5.72
2023-05-19T04:08:24.825Z,5.72
2023-05-19T04:10:52.817Z,5.80
2023-05-19T04:13:20.794Z,5.88
2023-05-19T04:15:48.996Z,5.97
2023-05-19T04:18:17.016Z,6.05
2023-05-19T04:20:46.390Z,6.08
2023-05-19T04:23:16.998Z,6.12
2023-05-19T04:25:45.010Z,6.14
2023-05-19T04:28:13.032Z,6.15
2023-05-19T04:30:42.650Z,6.19
2023-05-19T04:33:10.904Z,6.23
2023-05-19T04:35:39.802Z,6.27
2023-05-19T04:38:10.070Z,6.32
2023-05-19T04:40:38.020Z,6.34
2023-05-19T04:43:07.409Z,6.40
2023-05-19T04:45:37.729Z,6.43
2023-05-19T04:48:06.236Z,6.52
2023-05-19T04:50:34.479Z,6.54
2023-05-19T04:53:02.619Z,6.64
2023-05-19T04:55:33.010Z,6.66
2023-05-19T04:58:07.807Z,6.79
2023-05-19T05:00:36.491Z,6.86
2023-05-19T05:03:06.018Z,6.93
2023-05-19T05:05:34.232Z,7.02
2023-05-19T05:08:03.295Z,7.21
2023-05-19T05:10:33.050Z,7.27
2023-05-19T05:13:02.270Z,7.36
2023-05-19T05:15:30.981Z,7.43
2023-05-19T05:17:59.088Z,7.58
2023-05-19T05:20:28.014Z,7.65
2023-05-19T05:22:57.772Z,7.73
2023-05-19T05:25:26.315Z,7.87
2023-05-19T05:27:55.896Z,7.99
2023-05-19T05:30:23.854Z,8.08
2023-05-19T05:32:52.094Z,8.22
2023-05-19T05:35:22.317Z,8.34
2023-05-19T05:37:50.316Z,8.49
2023-05-19T05:40:18.700Z,8.59
2023-05-19T05:42:46.810Z,8.77
2023-05-19T05:45:16.201Z,8.87
2023-05-19T05:47:44.727Z,9.01
2023-05-19T05:50:14.686Z,9.15
2023-05-19T05:52:46.892Z,9.19
2023-05-19T05:55:17.519Z,9.27
2023-05-19T05:57:45.584Z,9.34
2023-05-19T06:00:16.513Z,9.47
2023-05-19T06:02:47.846Z,9.58
2023-05-19T06:05:16.660Z,9.69
2023-05-19T06:07:45.069Z,9.80
2023-05-19T06:10:13.157Z,9.89
2023-05-19T06:12:41.352Z,10.00
2023-05-19T06:15:09.897Z,10.02
2023-05-19T06:17:39.499Z,10.13
2023-05-19T06:20:10.311Z,10.23
2023-05-19T06:22:38.462Z,10.32
2023-05-19T06:25:09.013Z,10.38
2023-05-19T06:27:37.354Z,10.42
2023-05-19T06:30:06.480Z,10.48
2023-05-19T06:32:34.579Z,10.56
2023-05-19T06:35:04.447Z,10.62
2023-05-19T06:37:32.797Z,10.64
2023-05-19T06:40:00.964Z,10.73
2023-05-19T06:42:31.742Z,10.75
2023-05-19T06:45:01.199Z,10.79
2023-05-19T06:47:29.358Z,10.89
2023-05-19T06:49:58.037Z,11.06
2023-05-19T06:52:27.388Z,11.12
2023-05-19T06:54:55.406Z,11.17
2023-05-19T06:57:23.501Z,11.26
2023-05-19T06:59:51.508Z,11.36
2023-05-19T07:02:19.550Z,11.46
2023-05-19T07:04:47.583Z,11.58
2023-05-19T07:07:15.751Z,11.62
2023-05-19T07:09:45.188Z,11.71
2023-05-19T07:12:13.220Z,11.83
2023-05-19T07:14:41.245Z,11.91
2023-05-19T07:17:09.462Z,11.96
2023-05-19T07:19:37.458Z,12.03
2023-05-19T07:22:05.984Z,12.12
2023-05-19T07:24:33.769Z,12.22
2023-05-19T07:27:04.520Z,12.31
2023-05-19T07:29:32.540Z,12.46
2023-05-19T07:32:03.409Z,12.52
2023-05-19T07:34:31.491Z,12.58
2023-05-19T07:36:59.477Z,12.64
2023-05-19T07:39:29.790Z,12.72
2023-05-19T07:41:59.543Z,12.86
2023-05-19T07:44:31.352Z,12.97
2023-05-19T07:46:59.334Z,13.10
2023-05-19T07:49:27.415Z,13.21
2023-05-19T07:51:55.448Z,13.29
2023-05-19T07:54:23.478Z,13.40
2023-05-19T07:56:51.824Z,13.46
2023-05-19T07:59:19.864Z,13.55
2023-05-19T08:01:52.330Z,13.57
2023-05-19T08:04:20.472Z,13.68
2023-05-19T08:06:48.587Z,13.77
2023-05-19T08:09:20.231Z,13.94
2023-05-19T08:11:48.380Z,14.22
2023-05-19T08:14:16.500Z,14.37
2023-05-19T08:16:46.185Z,14.40
2023-05-19T08:19:17.632Z,14.52
2023-05-19T08:21:45.667Z,14.68
2023-05-19T08:24:13.740Z,14.73
2023-05-19T08:26:41.736Z,14.90
2023-05-19T08:29:12.859Z,14.98
2023-05-19T08:31:41.034Z,15.07
2023-05-19T08:34:09.534Z,15.12
2023-05-19T08:36:39.141Z,15.21
2023-05-19T08:39:07.122Z,15.23
2023-05-19T08:41:37.579Z,15.29
2023-05-19T08:44:06.080Z,15.31
2023-05-19T08:46:34.261Z,15.47
2023-05-19T08:49:10.773Z,15.54
2023-05-19T08:51:45.815Z,15.59
2023-05-19T08:54:20.873Z,15.55
2023-05-19T08:56:49.620Z,15.66
2023-05-19T08:59:19.442Z,15.64
2023-05-19T09:01:48.429Z,15.69
2023-05-19T09:04:18.099Z,15.75
2023-05-19T09:06:53.076Z,15.75
2023-05-19T09:09:21.187Z,15.66
2023-05-19T09:11:49.397Z,15.75
2023-05-19T09:14:17.395Z,15.78
2023-05-19T09:16:49.976Z,15.74
2023-05-19T09:19:18.203Z,15.89
2023-05-19T09:21:46.529Z,16.05
2023-05-19T09:24:16.503Z,16.07
2023-05-19T09:26:47.634Z,16.06
2023-05-19T09:29:17.741Z,16.10
2023-05-19T09:31:50.765Z,16.17
2023-05-19T09:34:20.724Z,16.20
2023-05-19T09:36:50.746Z,16.22
2023-05-19T09:39:21.754Z,16.35
2023-05-19T09:41:53.675Z,16.47
2023-05-19T09:44:29.200Z,16.40
2023-05-19T09:46:58.300Z,16.49
2023-05-19T09:49:31.882Z,16.57
2023-05-19T09:52:01.863Z,16.60
2023-05-19T09:54:32.597Z,16.73
2023-05-19T09:57:01.896Z,16.87
2023-05-19T09:59:33.371Z,16.88
2023-05-19T10:02:05.144Z,16.98
2023-05-19T10:04:33.234Z,16.92
2023-05-19T10:07:05.778Z,16.91
2023-05-19T10:09:37.572Z,16.95
2023-05-19T10:12:06.716Z,16.96
2023-05-19T10:14:34.692Z,16.93
2023-05-19T10:17:02.809Z,17.06
2023-05-19T10:19:31.259Z,17.06
2023-05-19T10:21:59.233Z,17.19
2023-05-19T10:24:27.778Z,17.22
2023-05-19T10:27:02.605Z,17.18
2023-05-19T10:29:34.632Z,17.19
2023-05-19T10:32:09.228Z,17.34
2023-05-19T10:35:02.207Z,17.27
2023-05-19T10:37:38.672Z,17.29
2023-05-19T10:40:12.223Z,17.26
2023-05-19T10:42:49.391Z,17.34
2023-05-19T10:45:21.151Z,17.47
2023-05-19T10:47:51.620Z,17.54
2023-05-19T10:50:21.365Z,17.61
2023-05-19T10:52:55.711Z,17.77
2023-05-19T10:55:48.804Z,17.87
2023-05-19T10:58:38.243Z,17.94
2023-05-19T11:01:10.037Z,17.86
2023-05-19T11:03:48.794Z,17.93
2023-05-19T11:06:22.658Z,18.03
2023-05-19T11:08:55.561Z,18.01
2023-05-19T11:11:23.847Z,18.08
2023-05-19T11:13:53.778Z,18.13
2023-05-19T11:16:28.420Z,18.23
2023-05-19T11:18:57.501Z,18.33
2023-05-19T11:21:25.793Z,18.37
2023-05-19T11:23:54.005Z,18.44
2023-05-19T11:26:41.439Z,18.51
2023-05-19T11:29:11.968Z,18.52
2023-05-19T11:31:41.476Z,18.57
2023-05-19T11:34:10.101Z,18.63
2023-05-19T11:36:40.080Z,18.79
2023-05-19T11:39:10.623Z,18.73
2023-05-19T11:41:40.668Z,18.71
2023-05-19T11:44:12.886Z,18.77
2023-05-19T11:46:41.045Z,18.88
2023-05-19T11:49:09.238Z,18.89
2023-05-19T11:51:38.424Z,18.93
2023-05-19T11:54:06.659Z,19.00
2023-05-19T11:56:35.922Z,19.02
2023-05-19T11:59:03.982Z,18.82
2023-05-19T12:01:35.262Z,18.86
2023-05-19T12:04:03.361Z,18.89
2023-05-19T12:06:31.899Z,19.03
2023-05-19T12:09:00.078Z,19.05
2023-05-19T12:11:29.581Z,19.09
2023-05-19T12:14:00.178Z,19.12
2023-05-19T12:16:35.947Z,19.16
2023-05-19T12:19:06.817Z,19.31
2023-05-19T12:21:34.994Z,19.41
2023-05-19T12:24:03.445Z,19.59
2023-05-19T12:26:31.613Z,19.50
2023-05-19T12:29:00.059Z,19.45
2023-05-19T12:31:28.112Z,19.50
2023-05-19T12:33:57.658Z,19.51
2023-05-19T12:36:27.229Z,19.69
2023-05-19T12:38:56.066Z,19.76
2023-05-19T12:41:27.406Z,19.77
2023-05-19T12:43:56.089Z,19.91
2023-05-19T12:46:24.189Z,20.02
2023-05-19T12:48:52.313Z,20.04
2023-05-19T12:51:22.197Z,20.04
2023-05-19T12:53:51.687Z,20.14
2023-05-19T12:56:19.809Z,20.14
2023-05-19T12:58:47.839Z,20.02
2023-05-19T13:01:20.086Z,20.00
2023-05-19T13:03:48.659Z,20.12
2023-05-19T13:06:16.876Z,20.21
2023-05-19T13:08:48.509Z,20.05
2023-05-19T13:11:16.629Z,20.14
2023-05-19T13:13:44.655Z,20.15
2023-05-19T13:16:13.619Z,20.22
2023-05-19T13:18:44.284Z,20.20
2023-05-19T13:21:12.351Z,20.24
2023-05-19T13:23:40.387Z,20.26
2023-05-19T13:26:11.697Z,20.35
2023-05-19T13:28:39.687Z,20.47
2023-05-19T13:31:07.788Z,20.34
2023-05-19T13:33:35.648Z,20.46
2023-05-19T13:36:03.603Z,20.29
2023-05-19T13:38:31.728Z,20.39
2023-05-19T13:40:59.832Z,20.47
2023-05-19T13:43:29.422Z,20.61
2023-05-19T13:45:57.701Z,20.74
2023-05-19T13:48:25.620Z,20.87
2023-05-19T13:50:55.622Z,20.79
2023-05-19T13:53:23.655Z,20.76
2023-05-19T13:55:53.086Z,20.81
2023-05-19T13:58:21.062Z,20.79
2023-05-19T14:00:54.663Z,20.80
2023-05-19T14:03:22.824Z,20.94
2023-05-19T14:05:50.745Z,21.22
2023-05-19T14:08:18.872Z,21.60
2023-05-19T14:10:47.552Z,22.19
2023-05-19T14:13:31.018Z,23.17
2023-05-19T14:16:01.366Z,24.75
2023-05-19T14:18:29.421Z,26.42
2023-05-19T14:20:57.207Z,27.82
2023-05-19T14:23:25.275Z,29.23
2023-05-19T14:25:53.399Z,30.29
2023-05-19T14:28:21.414Z,31.32
2023-05-19T14:30:49.957Z,32.33
2023-05-19T14:33:20.586Z,33.10
2023-05-19T14:35:48.612Z,33.04
2023-05-19T14:38:18.742Z,33.53
2023-05-19T14:40:48.486Z,33.87
2023-05-19T14:43:16.571Z,34.13
2023-05-19T14:45:45.199Z,34.68
2023-05-19T14:48:13.420Z,35.22
2023-05-19T14:50:42.914Z,35.35
2023-05-19T14:53:11.367Z,35.68
2023-05-19T14:55:39.314Z,35.61
2023-05-19T14:58:15.940Z,35.76
2023-05-19T15:00:54.651Z,35.48
2023-05-19T15:03:23.318Z,35.00
2023-05-19T15:05:52.739Z,33.23
2023-05-19T15:08:21.041Z,33.78
2023-05-19T15:10:49.965Z,33.76
2023-05-19T15:13:18.967Z,34.04
2023-05-19T15:15:47.315Z,35.25
2023-05-19T15:18:17.875Z,35.74
2023-05-19T15:20:46.617Z,35.46
2023-05-19T15:23:16.023Z,35.86
2023-05-19T15:25:51.517Z,36.23
2023-05-19T15:28:20.637Z,36.58
2023-05-19T15:30:48.619Z,36.13
2023-05-19T15:33:16.810Z,35.65
2023-05-19T15:35:44.897Z,36.08
2023-05-19T15:38:13.137Z,35.09
2023-05-19T15:40:43.922Z,35.29
2023-05-19T15:43:11.945Z,35.81
2023-05-19T15:45:39.921Z,35.75
2023-05-19T15:48:08.583Z,35.90
2023-05-19T15:50:37.059Z,36.02
2023-05-19T15:53:06.957Z,36.11
2023-05-19T15:55:35.010Z,36.10
2023-05-19T15:58:04.389Z,35.90
2023-05-19T16:00:32.824Z,35.84
2023-05-19T16:03:01.299Z,35.84
2023-05-19T16:05:29.471Z,35.57
2023-05-19T16:07:57.548Z,34.69
2023-05-19T16:10:25.537Z,33.97
2023-05-19T16:12:53.859Z,33.06
2023-05-19T16:15:23.312Z,31.73
2023-05-19T16:17:51.330Z,30.00
2023-05-19T16:20:20.284Z,28.84
2023-05-19T16:22:48.337Z,27.76
2023-05-19T16:25:16.452Z,26.67
2023-05-19T16:27:44.499Z,25.67
2023-05-19T16:30:12.785Z,24.99
2023-05-19T16:32:42.190Z,24.58
2023-05-19T16:35:10.972Z,24.30
2023-05-19T16:37:39.215Z,24.25
2023-05-19T16:40:08.442Z,24.03
2023-05-19T16:42:36.390Z,23.85
2023-05-19T16:45:04.872Z,23.59
2023-05-19T16:47:33.129Z,23.29
2023-05-19T16:50:02.588Z,23.10
2023-05-19T16:52:30.677Z,23.01
2023-05-19T16:54:58.688Z,22.90
2023-05-19T16:57:26.689Z,22.62
2023-05-19T16:59:54.706Z,22.32
2023-05-19T17:02:22.834Z,22.15
2023-05-19T17:04:50.637Z,22.01
2023-05-19T17:07:20.053Z,22.03
2023-05-19T17:09:48.286Z,21.94
2023-05-19T17:12:16.093Z,21.71
2023-05-19T17:14:44.314Z,21.61
2023-05-19T17:17:12.135Z,21.45
2023-05-19T17:19:40.199Z,21.30
2023-05-19T17:22:10.561Z,21.24
2023-05-19T17:24:39.985Z,21.17
2023-05-19T17:27:08.460Z,20.99
2023-05-19T17:29:36.970Z,20.85
2023-05-19T17:32:05.491Z,20.81
2023-05-19T17:34:33.596Z,20.83
2023-05-19T17:37:01.644Z,20.71
2023-05-19T17:39:29.691Z,20.71
2023-05-19T17:41:59.090Z,20.69
2023-05-19T17:44:27.220Z,20.65
2023-05-19T17:46:55.448Z,20.55
2023-05-19T17:49:25.842Z,20.48
2023-05-19T17:51:54.600Z,20.68
2023-05-19T17:54:23.269Z,20.79
2023-05-19T17:56:52.606Z,21.32
2023-05-19T17:59:22.652Z,21.80
2023-05-19T18:01:51.479Z,21.66
2023-05-19T18:04:20.383Z,22.01
2023-05-19T18:06:52.033Z,22.42
2023-05-19T18:09:31.520Z,23.08
2023-05-19T18:12:02.216Z,23.52
2023-05-19T18:14:31.805Z,23.67
2023-05-19T18:16:59.878Z,23.57
2023-05-19T18:19:27.973Z,23.78
2023-05-19T18:21:56.228Z,23.65
2023-05-19T18:24:24.010Z,23.65
2023-05-19T18:26:52.013Z,23.30
2023-05-19T18:29:20.033Z,22.52
2023-05-19T18:31:49.436Z,22.26
2023-05-19T18:34:17.455Z,21.93
2023-05-19T18:36:45.525Z,21.60
2023-05-19T18:39:13.509Z,21.15
2023-05-19T18:41:42.840Z,20.79
2023-05-19T18:44:11.622Z,20.59
2023-05-19T18:46:39.622Z,20.57
2023-05-19T18:49:11.556Z,20.38
2023-05-19T18:51:39.855Z,19.91
2023-05-19T18:54:08.445Z,19.70
2023-05-19T18:56:36.596Z,19.51
2023-05-19T18:59:04.615Z,19.35
2023-05-19T19:01:32.671Z,19.18
2023-05-19T19:04:01.100Z,18.98
2023-05-19T19:06:31.401Z,18.91
2023-05-19T19:08:59.401Z,18.72
2023-05-19T19:11:27.536Z,18.66
2023-05-19T19:13:56.810Z,18.53
2023-05-19T19:16:24.967Z,18.41
2023-05-19T19:18:53.110Z,18.29
2023-05-19T19:21:24.022Z,18.23
2023-05-19T19:23:54.783Z,18.12
2023-05-19T19:26:25.100Z,17.98
2023-05-19T19:28:53.063Z,17.84
2023-05-19T19:31:21.290Z,17.68
2023-05-19T19:33:49.309Z,17.64
2023-05-19T19:36:17.552Z,17.58
2023-05-19T19:38:45.588Z,17.41
2023-05-19T19:41:14.981Z,17.38
2023-05-19T19:43:42.936Z,17.32
2023-05-19T19:46:11.249Z,17.18
2023-05-19T19:48:39.369Z,17.08
2023-05-19T19:51:07.407Z,17.13
2023-05-19T19:53:35.384Z,17.03
2023-05-19T19:56:05.243Z,16.94
2023-05-19T19:58:34.925Z,16.92
2023-05-19T20:01:04.521Z,16.81
2023-05-19T20:03:33.623Z,16.72
2023-05-19T20:06:01.738Z,16.61
2023-05-19T20:08:29.754Z,16.50
2023-05-19T20:10:57.757Z,16.42
2023-05-19T20:13:25.766Z,16.37
2023-05-19T20:15:55.244Z,16.30
2023-05-19T20:18:23.260Z,16.19
2023-05-19T20:20:51.286Z,16.08
2023-05-19T20:23:19.246Z,16.00
2023-05-19T20:25:54.772Z,16.00
2023-05-19T20:28:30.914Z,15.80
2023-05-19T20:31:00.351Z,15.76
2023-05-19T20:33:31.911Z,15.75
2023-05-19T20:35:59.853Z,15.64
2023-05-19T20:38:27.895Z,15.55
2023-05-19T20:40:55.959Z,15.44
2023-05-19T20:43:23.963Z,15.23
2023-05-19T20:45:52.475Z,15.20
2023-05-19T20:48:22.054Z,15.05
2023-05-19T20:50:50.081Z,14.95
2023-05-19T20:53:21.554Z,14.87
2023-05-19T20:55:49.875Z,14.73
2023-05-19T20:58:17.898Z,14.60
2023-05-19T21:00:46.158Z,14.45
2023-05-19T21:03:14.224Z,14.27
2023-05-19T21:05:43.864Z,14.23
2023-05-19T21:08:17.763Z,13.99
2023-05-19T21:10:45.874Z,13.91
2023-05-19T21:13:13.940Z,13.76
2023-05-19T21:15:41.959Z,13.65
2023-05-19T21:18:11.471Z,13.46
2023-05-19T21:20:39.648Z,13.38
2023-05-19T21:23:09.001Z,13.39
2023-05-19T21:25:37.037Z,13.28
2023-05-19T21:28:06.068Z,13.23
2023-05-19T21:30:34.303Z,13.04
2023-05-19T21:33:02.614Z,12.94
2023-05-19T21:35:30.647Z,12.78
2023-05-19T21:38:03.899Z,12.78
2023-05-19T21:40:38.781Z,12.70
2023-05-19T21:43:07.079Z,12.55
2023-05-19T21:45:35.080Z,12.53
2023-05-19T21:48:03.135Z,12.53
2023-05-19T21:50:31.369Z,12.42
2023-05-19T21:52:59.484Z,12.42
2023-05-19T21:55:27.532Z,12.32
2023-05-19T21:57:56.866Z,12.22
2023-05-19T22:00:25.826Z,12.10
2023-05-19T22:02:53.927Z,12.06
2023-05-19T22:05:22.039Z,12.01
2023-05-19T22:07:50.041Z,11.90
2023-05-19T22:10:18.099Z,11.81
2023-05-19T22:12:46.066Z,11.72
2023-05-19T22:15:15.996Z,11.66
2023-05-19T22:17:44.275Z,11.54
2023-05-19T22:20:13.171Z,11.43
2023-05-19T22:22:41.398Z,11.42
2023-05-19T22:25:09.867Z,11.51
2023-05-19T22:27:37.861Z,11.46
2023-05-19T22:30:07.275Z,11.35
2023-05-19T22:32:37.022Z,11.33
2023-05-19T22:35:06.640Z,11.23
2023-05-19T22:37:34.719Z,11.20
2023-05-19T22:40:02.747Z,11.08
2023-05-19T22:42:30.705Z,11.01
2023-05-19T22:44:58.758Z,11.03
2023-05-19T22:47:26.943Z,10.90
2023-05-19T22:49:57.113Z,10.89
2023-05-19T22:52:25.371Z,10.87
2023-05-19T22:54:53.541Z,10.76
2023-05-19T22:57:21.536Z,10.64
2023-05-19T22:59:49.526Z,10.55
2023-05-19T23:02:17.550Z,10.48
2023-05-19T23:04:45.617Z,10.50
2023-05-19T23:07:15.162Z,10.45
2023-05-19T23:09:43.160Z,10.41
2023-05-19T23:12:11.136Z,10.41
2023-05-19T23:14:39.140Z,10.35
2023-05-19T23:17:07.434Z,10.22
2023-05-19T23:19:36.589Z,10.06
2023-05-19T23:22:04.579Z,10.00
2023-05-19T23:24:33.948Z,9.95
2023-05-19T23:27:02.091Z,9.87
2023-05-19T23:29:30.119Z,9.82
2023-05-19T23:31:58.095Z,9.72
2023-05-19T23:34:26.092Z,9.61
2023-05-19T23:36:54.078Z,9.66
2023-05-19T23:39:25.187Z,9.74
2023-05-19T23:41:54.536Z,9.76
2023-05-19T23:44:22.536Z,9.80
2023-05-19T23:46:50.682Z,9.75
2023-05-19T23:49:19.799Z,9.72
2023-05-19T23:51:47.772Z,9.59
2023-05-19T23:54:15.828Z,9.50
2023-05-19T23:56:44.066Z,9.47
2023-05-19T23:59:13.416Z,9.42
